Time;durP1;ratioP1;P1;durP2;ratioP2;P2;SDS_P1;SDS_P2;PMS_P1;PMS_P2;Temp;Humidity;BMP_temperature;BMP_pressure;BME280_temperature;BME280_humidity;BME280_pressure;Samples;Min_cycle;Max_cycle;Signal;HPM_P1;HPM_P2
2022/03/09 00:02:16;;;;;;;9.55;7.35;;;2.00;63.70;;;;;;6119610;23;20189;-74
2022/03/09 00:04:43;;;;;;;9.00;6.90;;;2.00;63.90;;;;;;6101080;23;20275;-74
2022/03/09 00:07:10;;;;;;;8.98;7.60;;;1.90;64.00;;;;;;6115850;23;20188;-75
2022/03/09 00:09:37;;;;;;;8.98;7.38;;;1.90;64.10;;;;;;6103322;23;20315;-74
2022/03/09 00:12:04;;;;;;;14.77;7.00;;;1.90;64.90;;;;;;6100789;23;20861;-74
2022/03/09 00:14:31;;;;;;;8.05;7.25;;;1.90;64.20;;;;;;6108347;23;20196;-74
2022/03/09 00:16:58;;;;;;;9.13;7.05;;;2.00;64.30;;;;;;6117539;23;20189;-75
2022/03/09 00:19:27;;;;;;;8.50;7.60;;;1.90;64.20;;;;;;6118853;23;20195;-74
2022/03/09 00:21:53;;;;;;;8.32;7.50;;;2.00;64.50;;;;;;6118100;23;20189;-74
2022/03/09 00:24:20;;;;;;;8.65;7.57;;;2.00;64.50;;;;;;6106434;23;20198;-74
2022/03/09 00:26:48;;;;;;;9.65;7.20;;;2.00;64.50;;;;;;6105953;23;20206;-75
2022/03/09 00:29:15;;;;;;;7.85;7.05;;;2.00;64.80;;;;;;6110083;23;20193;-74
2022/03/09 00:31:42;;;;;;;8.32;7.10;;;1.90;64.70;;;;;;6112601;23;20207;-74
2022/03/09 00:34:09;;;;;;;8.25;7.40;;;1.90;64.60;;;;;;6117814;23;20530;-74
2022/03/09 00:36:37;;;;;;;10.48;7.07;;;1.90;64.70;;;;;;6114888;23;20194;-74
2022/03/09 00:39:04;;;;;;;8.77;7.70;;;1.90;64.70;;;;;;6097083;23;20277;-74
2022/03/09 00:41:31;;;;;;;10.90;8.02;;;1.90;64.80;;;;;;6097747;23;20190;-76
2022/03/09 00:43:58;;;;;;;8.43;7.60;;;1.90;64.80;;;;;;6093855;23;20217;-74
2022/03/09 00:46:25;;;;;;;7.82;6.88;;;1.90;65.00;;;;;;6100159;23;20196;-75
2022/03/09 00:48:52;;;;;;;10.00;7.00;;;1.80;65.10;;;;;;6119341;23;20195;-74
2022/03/09 00:51:19;;;;;;;9.70;7.80;;;1.70;65.40;;;;;;6111610;23;20212;-74
2022/03/09 00:53:47;;;;;;;8.43;7.60;;;1.60;65.90;;;;;;6118988;23;20221;-74
2022/03/09 00:56:15;;;;;;;10.13;7.60;;;1.60;66.10;;;;;;6115135;23;20637;-74
2022/03/09 00:58:42;;;;;;;9.43;8.45;;;1.60;66.10;;;;;;6118561;23;20200;-74
2022/03/09 01:01:10;;;;;;;9.90;7.93;;;1.60;66.30;;;;;;6117944;23;20192;-74
2022/03/09 01:03:37;;;;;;;10.50;8.30;;;1.50;66.70;;;;;;6114867;23;20250;-75
2022/03/09 01:06:04;;;;;;;10.20;7.57;;;1.50;66.90;;;;;;6099926;23;20283;-74
2022/03/09 01:08:32;;;;;;;9.80;8.45;;;1.40;67.10;;;;;;6092052;23;20194;-75
2022/03/09 01:11:00;;;;;;;12.20;9.18;;;1.30;67.40;;;;;;6113804;23;20188;-74
2022/03/09 01:13:27;;;;;;;9.48;8.30;;;1.30;67.90;;;;;;6110465;23;20303;-74
2022/03/09 01:15:54;;;;;;;10.80;8.60;;;1.30;68.20;;;;;;6107893;23;20200;-74
2022/03/09 01:18:22;;;;;;;11.52;8.65;;;1.20;68.30;;;;;;6118441;23;20262;-74
2022/03/09 01:20:49;;;;;;;9.70;8.18;;;1.20;68.50;;;;;;6119516;23;20272;-74
2022/03/09 01:23:16;;;;;;;10.02;7.70;;;1.20;68.80;;;;;;6121068;23;20207;-74
2022/03/09 01:25:43;;;;;;;10.15;9.15;;;1.20;68.90;;;;;;6112666;23;20287;-75
2022/03/09 01:28:11;;;;;;;8.50;7.63;;;1.20;68.90;;;;;;6098560;23;20188;-74
2022/03/09 01:30:38;;;;;;;8.55;7.53;;;1.20;69.00;;;;;;6118472;23;20226;-74
2022/03/09 01:33:05;;;;;;;10.35;7.95;;;1.20;68.90;;;;;;6092994;23;20256;-74
2022/03/09 01:35:32;;;;;;;10.18;7.50;;;1.20;68.80;;;;;;6108860;23;20731;-74
2022/03/09 01:37:59;;;;;;;9.73;7.95;;;1.30;68.90;;;;;;6103655;23;20218;-74
2022/03/09 01:40:26;;;;;;;8.80;6.82;;;1.30;68.80;;;;;;6100912;23;20196;-74
2022/03/09 01:42:53;;;;;;;8.73;7.15;;;1.30;68.60;;;;;;6107391;23;20215;-74
2022/03/09 01:45:22;;;;;;;9.55;7.78;;;1.30;68.60;;;;;;6107938;23;20196;-75
2022/03/09 01:47:49;;;;;;;9.65;7.93;;;1.20;68.50;;;;;;6108658;23;20200;-74
2022/03/09 01:50:16;;;;;;;10.82;8.30;;;1.10;69.40;;;;;;6097640;23;20192;-77
2022/03/09 01:52:44;;;;;;;10.35;7.70;;;1.00;70.30;;;;;;6091895;23;20220;-74
2022/03/09 01:55:11;;;;;;;9.98;8.63;;;1.00;70.80;;;;;;6103545;23;20191;-74
2022/03/09 01:57:40;;;;;;;9.30;8.20;;;1.00;71.00;;;;;;6117548;23;20188;-74
2022/03/09 02:00:09;;;;;;;11.98;9.32;;;1.00;71.20;;;;;;6118280;23;20206;-74
2022/03/09 02:02:37;;;;;;;11.63;8.95;;;1.10;71.30;;;;;;6117741;23;20212;-74
2022/03/09 02:05:05;;;;;;;10.18;8.50;;;1.10;71.30;;;;;;6104040;23;20236;-74
2022/03/09 02:10:20;;;;;;;9.13;7.45;;;1.20;70.80;;;;;;6118077;23;20195;-75
2022/03/09 02:12:47;;;;;;;8.65;7.18;;;1.20;70.60;;;;;;6120010;23;20228;-74
2022/03/09 02:15:14;;;;;;;9.57;7.50;;;1.20;70.50;;;;;;6100000;23;20653;-74
2022/03/09 02:17:43;;;;;;;9.00;8.05;;;1.20;70.20;;;;;;6111937;23;20200;-75
2022/03/09 02:20:10;;;;;;;7.97;7.25;;;1.20;70.40;;;;;;6090907;23;20216;-75
2022/03/09 02:22:40;;;;;;;8.10;6.65;;;1.10;70.10;;;;;;6103232;23;20251;-74
2022/03/09 02:25:09;;;;;;;8.88;6.65;;;1.00;70.20;;;;;;6101477;23;20632;-74
2022/03/09 02:27:36;;;;;;;8.10;6.75;;;1.00;70.50;;;;;;6111740;23;20227;-74
2022/03/09 02:30:05;;;;;;;8.43;7.13;;;1.10;70.90;;;;;;6091554;23;20206;-74
2022/03/09 02:32:32;;;;;;;7.35;6.50;;;1.00;70.60;;;;;;6109897;23;20219;-74
2022/03/09 02:34:59;;;;;;;8.40;6.75;;;1.00;70.60;;;;;;6109688;23;20734;-74
2022/03/09 02:37:26;;;;;;;7.45;6.75;;;1.10;70.80;;;;;;6115627;23;20544;-74
2022/03/09 02:39:54;;;;;;;9.48;7.78;;;1.10;70.70;;;;;;6119949;23;20189;-74
2022/03/09 02:42:21;;;;;;;7.80;6.72;;;1.10;70.70;;;;;;6107967;23;20209;-74
2022/03/09 02:44:48;;;;;;;7.85;7.05;;;1.10;70.90;;;;;;6119561;23;20199;-74
2022/03/09 02:47:15;;;;;;;8.25;7.32;;;1.10;71.30;;;;;;6117196;23;20215;-74
2022/03/09 02:49:42;;;;;;;8.63;7.32;;;1.00;71.40;;;;;;6120593;23;20191;-74
2022/03/09 02:52:09;;;;;;;11.23;8.45;;;0.90;71.70;;;;;;6107198;23;20208;-73
2022/03/09 02:54:36;;;;;;;10.05;7.80;;;0.80;72.00;;;;;;6095506;23;20279;-74
2022/03/09 02:57:05;;;;;;;9.20;7.45;;;0.70;72.50;;;;;;6101372;23;20198;-73
2022/03/09 02:59:31;;;;;;;8.43;7.50;;;0.70;72.90;;;;;;6095939;23;20274;-73
2022/03/09 03:01:58;;;;;;;9.80;7.75;;;0.70;73.20;;;;;;6100042;23;20694;-74
2022/03/09 03:04:26;;;;;;;10.10;8.20;;;0.60;73.60;;;;;;6116049;23;20188;-74
2022/03/09 03:06:52;;;;;;;10.15;8.52;;;0.50;74.20;;;;;;6117919;23;20206;-74
2022/03/09 03:09:19;;;;;;;12.10;8.90;;;0.50;74.80;;;;;;6118343;23;20191;-73
2022/03/09 03:11:46;;;;;;;10.02;7.97;;;0.40;75.10;;;;;;6105831;23;20199;-74
2022/03/09 03:14:14;;;;;;;9.85;8.57;;;0.30;75.60;;;;;;6118479;23;20234;-74
2022/03/09 03:16:42;;;;;;;11.10;8.05;;;0.30;76.00;;;;;;6117530;23;20530;-73
2022/03/09 03:19:09;;;;;;;9.80;8.13;;;0.20;76.20;;;;;;6120740;23;20191;-73
2022/03/09 03:21:36;;;;;;;9.93;8.00;;;0.20;77.50;;;;;;6112212;23;20184;-74
2022/03/09 03:24:03;;;;;;;11.25;9.20;;;0.10;77.40;;;;;;6118997;23;20196;-74
2022/03/09 03:26:30;;;;;;;9.75;8.75;;;0.00;77.90;;;;;;6092008;23;20200;-74
2022/03/09 03:28:58;;;;;;;10.85;8.27;;;0.00;78.60;;;;;;6115656;23;20190;-73
2022/03/09 03:31:29;;;;;;;10.18;8.07;;;-0.30;78.90;;;;;;6119590;23;20192;-73
2022/03/09 03:33:56;;;;;;;10.32;8.02;;;-0.20;79.30;;;;;;6120151;23;20226;-73
2022/03/09 03:36:23;;;;;;;10.20;7.93;;;-0.30;79.80;;;;;;6100179;23;20275;-75
2022/03/09 03:38:50;;;;;;;10.05;8.35;;;-0.30;80.40;;;;;;6099700;23;20274;-74
2022/03/09 03:41:17;;;;;;;9.13;8.23;;;-0.40;80.60;;;;;;6119235;23;20187;-73
2022/03/09 03:43:44;;;;;;;13.10;8.90;;;-0.40;80.90;;;;;;6119720;23;20296;-73
2022/03/09 03:46:10;;;;;;;10.50;8.55;;;-0.50;81.40;;;;;;6102377;23;20183;-74
2022/03/09 03:48:39;;;;;;;10.63;9.52;;;-0.50;82.10;;;;;;6107317;23;20191;-74
2022/03/09 03:51:06;;;;;;;11.32;9.30;;;-0.60;83.00;;;;;;6116791;23;20665;-76
2022/03/09 03:53:33;;;;;;;11.10;8.45;;;-0.60;83.80;;;;;;6096403;23;20224;-74
2022/03/09 03:56:00;;;;;;;12.00;9.68;;;-0.70;84.40;;;;;;6118085;23;20222;-74
2022/03/09 03:58:27;;;;;;;10.88;9.43;;;-0.70;85.00;;;;;;6116649;23;20278;-73
2022/03/09 04:00:54;;;;;;;10.40;8.23;;;-0.60;85.30;;;;;;6119319;23;20274;-74
2022/03/09 04:03:21;;;;;;;11.38;9.45;;;-0.70;85.50;;;;;;6108574;23;20208;-74
2022/03/09 04:05:50;;;;;;;9.60;8.50;;;-0.70;85.80;;;;;;6104843;23;20199;-74
2022/03/09 04:08:16;;;;;;;11.75;9.70;;;-0.70;86.20;;;;;;6112107;23;20183;-73
2022/03/09 04:10:43;;;;;;;10.50;8.38;;;-0.70;86.50;;;;;;6117455;23;20612;-73
2022/03/09 04:13:10;;;;;;;13.50;9.35;;;-0.70;87.00;;;;;;6119875;23;20235;-74
2022/03/09 04:15:37;;;;;;;14.43;9.40;;;-0.70;87.30;;;;;;6116818;23;20187;-73
2022/03/09 04:18:04;;;;;;;11.35;9.38;;;-0.70;88.10;;;;;;6100822;23;20248;-74
2022/03/09 04:20:32;;;;;;;12.82;9.32;;;-0.70;88.40;;;;;;6118390;23;20194;-74
2022/03/09 04:23:00;;;;;;;10.75;9.13;;;-0.60;88.60;;;;;;6092021;23;20397;-73
2022/03/09 04:25:29;;;;;;;11.07;8.80;;;-0.60;88.60;;;;;;6106027;23;20191;-73
2022/03/09 04:27:56;;;;;;;11.10;8.45;;;-0.60;88.70;;;;;;6108319;23;20271;-73
2022/03/09 04:30:23;;;;;;;12.20;9.52;;;-0.60;88.70;;;;;;6106024;23;20222;-73
2022/03/09 04:32:50;;;;;;;10.13;9.02;;;-0.60;89.00;;;;;;6116560;23;20559;-74
2022/03/09 04:35:16;;;;;;;10.52;8.63;;;-0.60;89.20;;;;;;6112069;23;20220;-73
2022/03/09 04:37:43;;;;;;;12.38;10.10;;;-0.60;89.20;;;;;;6095203;23;20211;-73
2022/03/09 04:40:13;;;;;;;11.40;8.70;;;-0.60;89.60;;;;;;6106519;23;20188;-73
2022/03/09 04:42:40;;;;;;;14.05;10.68;;;-0.70;90.00;;;;;;6118853;23;20568;-73
2022/03/09 04:45:08;;;;;;;14.88;9.80;;;-0.70;90.30;;;;;;6105430;23;20204;-74
2022/03/09 04:47:35;;;;;;;12.60;9.02;;;-0.70;90.50;;;;;;6102317;23;20310;-73
2022/03/09 04:50:02;;;;;;;11.85;9.10;;;-0.80;90.80;;;;;;6115625;23;20192;-73
2022/03/09 04:52:29;;;;;;;11.18;9.20;;;-0.80;91.00;;;;;;6115560;23;20245;-74
2022/03/09 04:54:56;;;;;;;11.43;10.18;;;-0.80;91.40;;;;;;6118917;23;20226;-74
2022/03/09 04:57:24;;;;;;;12.52;9.70;;;-0.80;91.40;;;;;;6109557;23;20538;-72
2022/03/09 04:59:51;;;;;;;12.23;9.43;;;-0.80;91.40;;;;;;6105021;23;20198;-71
2022/03/09 05:02:18;;;;;;;11.40;9.23;;;-0.80;91.60;;;;;;6116014;23;20207;-73
2022/03/09 05:04:45;;;;;;;13.65;10.30;;;-0.70;91.80;;;;;;6097454;23;20555;-72
2022/03/09 05:07:12;;;;;;;14.95;9.82;;;-0.70;91.70;;;;;;6102749;23;20598;-74
2022/03/09 05:09:39;;;;;;;11.20;9.45;;;-0.70;91.70;;;;;;6104121;23;20266;-73
2022/03/09 05:12:07;;;;;;;10.95;9.40;;;-0.70;91.80;;;;;;6112248;23;20292;-72
2022/03/09 05:14:35;;;;;;;11.73;9.35;;;-0.60;91.70;;;;;;6110865;23;20213;-72
2022/03/09 05:17:02;;;;;;;12.75;9.70;;;-0.60;91.70;;;;;;6113989;23;20196;-72
2022/03/09 05:19:29;;;;;;;13.23;9.93;;;-0.50;91.70;;;;;;6112627;23;20199;-72
2022/03/09 05:21:57;;;;;;;12.02;9.38;;;-0.50;91.70;;;;;;6114397;23;20210;-72
2022/03/09 05:24:24;;;;;;;13.30;9.40;;;-0.50;91.70;;;;;;6102912;23;20195;-71
2022/03/09 05:26:51;;;;;;;13.82;10.27;;;-0.60;91.80;;;;;;6115452;23;20650;-71
2022/03/09 05:29:18;;;;;;;12.82;10.65;;;-0.60;91.80;;;;;;6112911;23;20193;-72
2022/03/09 05:31:46;;;;;;;12.43;10.63;;;-0.60;92.00;;;;;;6101070;23;20261;-73
2022/03/09 05:34:13;;;;;;;12.43;9.73;;;-0.70;92.20;;;;;;6113821;23;20223;-70
2022/03/09 05:36:40;;;;;;;14.52;11.32;;;-0.80;92.50;;;;;;6109298;23;20242;-70
2022/03/09 05:39:07;;;;;;;14.18;10.88;;;-0.80;92.70;;;;;;6106199;23;20267;-70
2022/03/09 05:41:34;;;;;;;15.40;10.98;;;-0.90;92.90;;;;;;6111547;23;20202;-71
2022/03/09 05:44:02;;;;;;;15.57;11.00;;;-0.90;93.30;;;;;;6117241;23;20661;-71
2022/03/09 05:46:30;;;;;;;14.23;11.13;;;-1.00;93.40;;;;;;6105995;23;20203;-71
2022/03/09 05:48:58;;;;;;;14.60;10.43;;;-1.10;93.60;;;;;;6115734;23;20253;-71
2022/03/09 05:51:25;;;;;;;16.42;10.18;;;-1.10;94.00;;;;;;6100191;23;20685;-71
2022/03/09 05:53:53;;;;;;;16.13;10.32;;;-1.20;94.20;;;;;;6105452;23;20212;-70
2022/03/09 05:56:20;;;;;;;12.18;9.35;;;-1.20;94.50;;;;;;6106035;23;20662;-72
2022/03/09 05:58:46;;;;;;;11.93;9.27;;;-1.30;94.60;;;;;;6115720;23;20194;-71
2022/03/09 06:01:14;;;;;;;12.50;9.40;;;-1.40;94.60;;;;;;6113582;23;20188;-70
2022/03/09 06:03:41;;;;;;;11.90;9.60;;;-1.50;95.00;;;;;;6117897;23;20679;-70
2022/03/09 06:06:09;;;;;;;14.77;10.45;;;-1.50;95.10;;;;;;6114364;23;20187;-71
2022/03/09 06:08:36;;;;;;;11.32;9.43;;;-1.50;95.30;;;;;;6115002;23;20218;-71
2022/03/09 06:11:03;;;;;;;9.80;8.80;;;-1.40;95.20;;;;;;6103604;23;20195;-71
2022/03/09 06:13:30;;;;;;;11.15;8.80;;;-1.30;95.20;;;;;;6106730;23;20214;-71
2022/03/09 06:15:57;;;;;;;9.40;8.15;;;-1.10;94.80;;;;;;6104338;23;20238;-72
2022/03/09 06:18:24;;;;;;;10.00;8.27;;;-0.90;94.50;;;;;;6113792;23;20179;-71
2022/03/09 06:20:51;;;;;;;8.88;7.90;;;-0.70;93.80;;;;;;6116286;23;20192;-72
2022/03/09 06:23:19;;;;;;;14.02;8.50;;;-0.50;93.40;;;;;;6116778;23;20199;-71
2022/03/09 06:25:46;;;;;;;10.48;8.20;;;-0.10;93.10;;;;;;6113131;23;20222;-71
2022/03/09 06:28:13;;;;;;;10.38;7.40;;;0.40;92.10;;;;;;6109837;23;20180;-72
2022/03/09 06:30:41;;;;;;;9.25;7.25;;;0.80;91.00;;;;;;6113322;23;20889;-72
2022/03/09 06:33:08;;;;;;;9.45;7.07;;;1.30;89.60;;;;;;6111970;23;20200;-71
2022/03/09 06:35:35;;;;;;;8.30;7.50;;;1.50;87.50;;;;;;6112512;23;20224;-76
2022/03/09 06:38:02;;;;;;;9.32;6.70;;;1.60;85.90;;;;;;6109931;23;20214;-73
2022/03/09 06:40:31;;;;;;;9.48;7.63;;;1.70;85.20;;;;;;6118918;23;20227;-73
2022/03/09 06:42:59;;;;;;;8.98;7.45;;;1.80;84.80;;;;;;6103035;23;20556;-73
2022/03/09 06:45:26;;;;;;;8.65;7.55;;;1.90;84.00;;;;;;6109095;23;20206;-73
2022/03/09 06:47:53;;;;;;;9.60;7.70;;;2.10;83.50;;;;;;6114915;23;20193;-74
2022/03/09 06:50:21;;;;;;;10.02;7.45;;;2.30;82.40;;;;;;6120304;23;20185;-74
2022/03/09 06:52:48;;;;;;;9.35;7.78;;;2.40;82.40;;;;;;6101276;23;20692;-74
2022/03/09 06:55:15;;;;;;;7.32;6.47;;;2.70;82.00;;;;;;6101855;23;20216;-73
2022/03/09 06:57:43;;;;;;;8.70;7.60;;;2.90;80.20;;;;;;6105595;23;20261;-73
2022/03/09 07:00:12;;;;;;;8.90;8.00;;;3.10;79.70;;;;;;6103328;23;21542;-74
2022/03/09 07:02:39;;;;;;;8.68;7.45;;;3.30;78.90;;;;;;6118428;23;20209;-74
2022/03/09 07:05:07;;;;;;;9.90;7.38;;;3.40;78.60;;;;;;6105067;23;20636;-74
2022/03/09 07:07:35;;;;;;;9.38;7.40;;;3.60;78.30;;;;;;6108319;23;20668;-74
2022/03/09 07:10:04;;;;;;;9.43;8.00;;;3.80;77.40;;;;;;6117073;23;20614;-73
2022/03/09 07:12:31;;;;;;;9.02;7.40;;;4.10;76.10;;;;;;6111672;23;20261;-74
2022/03/09 07:15:00;;;;;;;10.32;7.88;;;4.30;75.10;;;;;;6117741;23;20735;-73
2022/03/09 07:17:26;;;;;;;10.18;7.55;;;4.30;74.30;;;;;;6118444;23;20194;-74
2022/03/09 07:19:53;;;;;;;9.52;7.82;;;4.30;74.40;;;;;;6118916;23;20179;-74
2022/03/09 07:22:21;;;;;;;10.65;7.97;;;4.50;75.60;;;;;;6110509;23;20207;-72
2022/03/09 07:24:47;;;;;;;9.90;8.48;;;5.10;74.40;;;;;;6094301;23;20272;-72
2022/03/09 07:27:14;;;;;;;9.50;7.22;;;5.60;72.70;;;;;;6117708;23;20186;-72
2022/03/09 07:29:42;;;;;;;14.75;9.30;;;5.90;70.80;;;;;;6117793;23;20621;-72
2022/03/09 07:32:14;;;;;;;10.73;8.77;;;6.10;69.70;;;;;;6119325;23;20231;-72
2022/03/09 07:34:41;;;;;;;11.68;9.23;;;6.30;68.60;;;;;;6105258;23;20664;-72
2022/03/09 07:37:08;;;;;;;11.77;9.30;;;6.40;67.20;;;;;;6119489;23;20254;-72
2022/03/09 07:39:35;;;;;;;10.45;8.20;;;6.40;67.20;;;;;;6114502;23;20195;-72
2022/03/09 07:42:04;;;;;;;10.07;9.00;;;6.50;67.40;;;;;;6113633;23;20210;-72
2022/03/09 07:44:31;;;;;;;9.65;8.45;;;6.50;66.50;;;;;;6112712;23;20608;-72
2022/03/09 07:46:58;;;;;;;10.80;8.85;;;6.20;66.80;;;;;;6106745;23;20194;-72
2022/03/09 07:49:26;;;;;;;9.27;8.30;;;6.30;67.10;;;;;;6099829;23;20192;-72
2022/03/09 07:51:53;;;;;;;10.75;9.45;;;6.30;66.80;;;;;;6096132;23;20212;-72
2022/03/09 07:54:20;;;;;;;8.95;8.05;;;6.50;67.00;;;;;;6107994;23;20181;-75
2022/03/09 07:56:49;;;;;;;9.85;8.85;;;6.80;66.60;;;;;;6111909;23;20274;-71
2022/03/09 07:59:15;;;;;;;10.40;8.55;;;7.30;65.60;;;;;;6119155;23;20192;-71
2022/03/09 08:01:43;;;;;;;8.85;7.95;;;7.70;64.80;;;;;;6115596;23;20234;-72
2022/03/09 08:04:10;;;;;;;9.20;8.00;;;8.20;63.20;;;;;;6114916;23;20275;-71
2022/03/09 08:06:40;;;;;;;10.50;8.50;;;8.60;61.60;;;;;;6119784;23;20267;-71
2022/03/09 08:09:08;;;;;;;9.70;8.77;;;8.80;61.30;;;;;;6118939;23;20193;-71
2022/03/09 08:11:35;;;;;;;10.38;9.18;;;9.10;60.10;;;;;;6119889;23;20296;-71
2022/03/09 08:14:02;;;;;;;9.88;8.88;;;9.40;59.80;;;;;;6119009;23;20189;-71
2022/03/09 08:16:29;;;;;;;10.70;8.23;;;9.90;59.50;;;;;;6119514;23;20272;-72
2022/03/09 08:18:56;;;;;;;9.70;8.45;;;10.50;57.70;;;;;;6102562;23;20188;-72
2022/03/09 08:21:23;;;;;;;10.25;8.82;;;10.90;56.30;;;;;;6116458;23;20265;-72
2022/03/09 08:23:51;;;;;;;9.30;8.40;;;11.40;55.10;;;;;;6119711;23;20540;-72
2022/03/09 08:26:18;;;;;;;10.15;8.30;;;11.60;54.60;;;;;;6118719;23;20183;-72
2022/03/09 08:28:45;;;;;;;11.07;9.48;;;11.70;53.80;;;;;;6117580;23;20190;-72
2022/03/09 08:31:12;;;;;;;10.02;9.13;;;11.50;53.50;;;;;;6121395;23;20230;-72
2022/03/09 08:33:40;;;;;;;9.75;8.75;;;11.50;53.20;;;;;;6112975;23;20196;-72
2022/03/09 08:36:07;;;;;;;11.60;8.70;;;11.70;53.00;;;;;;6120245;23;20250;-72
2022/03/09 08:38:34;;;;;;;9.82;8.82;;;12.10;50.90;;;;;;6119924;23;20692;-72
2022/03/09 08:41:02;;;;;;;11.00;9.57;;;11.90;50.80;;;;;;6121297;23;20176;-72
2022/03/09 08:43:29;;;;;;;9.60;8.70;;;12.10;51.00;;;;;;6111795;23;20227;-72
2022/03/09 08:45:56;;;;;;;10.45;9.30;;;12.30;49.70;;;;;;6108938;23;20187;-72
2022/03/09 08:48:26;;;;;;;9.43;8.43;;;12.50;48.70;;;;;;6116859;23;20187;-72
2022/03/09 08:50:53;;;;;;;10.43;9.40;;;12.60;48.70;;;;;;6121038;23;20183;-72
2022/03/09 08:53:20;;;;;;;10.70;9.48;;;12.80;48.10;;;;;;6106709;23;20208;-72
2022/03/09 08:55:47;;;;;;;10.70;9.15;;;12.90;48.00;;;;;;6092178;23;20294;-72
2022/03/09 08:58:16;;;;;;;10.90;9.90;;;12.90;48.60;;;;;;6109736;23;20241;-72
2022/03/09 09:00:44;;;;;;;12.40;9.85;;;12.70;47.10;;;;;;6092111;23;20189;-72
2022/03/09 09:03:11;;;;;;;10.63;9.43;;;12.60;47.70;;;;;;6103970;23;20261;-72
2022/03/09 09:05:38;;;;;;;13.20;10.10;;;12.70;47.70;;;;;;6092319;23;20190;-72
2022/03/09 09:08:05;;;;;;;11.20;10.10;;;13.00;47.60;;;;;;6093956;23;20294;-73
2022/03/09 09:10:33;;;;;;;12.38;9.88;;;13.30;47.20;;;;;;6091035;23;20690;-72
2022/03/09 09:13:00;;;;;;;16.77;11.23;;;13.20;46.50;;;;;;6108358;23;20543;-72
2022/03/09 09:15:29;;;;;;;10.95;9.85;;;12.80;46.90;;;;;;6120762;23;20302;-72
2022/03/09 09:17:59;;;;;;;14.30;9.73;;;12.50;46.30;;;;;;6103264;23;20196;-72
2022/03/09 09:20:26;;;;;;;10.55;9.18;;;12.10;46.40;;;;;;6092584;23;20743;-72
2022/03/09 09:22:54;;;;;;;10.60;8.95;;;12.00;46.50;;;;;;6118140;23;20218;-74
2022/03/09 09:25:23;;;;;;;10.60;9.50;;;11.90;46.90;;;;;;6112379;23;20253;-74
2022/03/09 09:27:50;;;;;;;12.57;9.63;;;12.20;46.90;;;;;;6107268;23;20188;-75
2022/03/09 09:30:17;;;;;;;10.27;9.32;;;12.60;46.70;;;;;;6100476;23;20195;-74
2022/03/09 09:32:47;;;;;;;11.00;9.90;;;13.00;45.80;;;;;;6116898;23;20218;-75
2022/03/09 09:35:15;;;;;;;14.70;10.35;;;13.20;46.10;;;;;;6098949;23;20227;-75
2022/03/09 09:37:43;;;;;;;11.10;10.00;;;13.70;45.80;;;;;;6103920;23;20278;-75
2022/03/09 09:40:14;;;;;;;11.60;10.47;;;14.30;45.60;;;;;;6106115;23;20454;-75
2022/03/09 09:42:42;;;;;;;10.40;9.40;;;14.90;44.60;;;;;;6117722;23;20486;-75
2022/03/09 09:45:10;;;;;;;11.33;10.23;;;15.50;43.10;;;;;;6099629;23;20448;-76
2022/03/09 09:47:38;;;;;;;10.87;9.77;;;15.40;42.40;;;;;;6098243;23;20439;-75
2022/03/09 09:50:07;;;;;;;10.97;9.87;;;15.50;42.50;;;;;;6099171;23;20442;-75
2022/03/09 09:52:36;;;;;;;12.00;10.80;;;15.40;42.30;;;;;;6109537;23;21283;-75
2022/03/09 09:55:07;;;;;;;11.60;10.40;;;15.60;42.30;;;;;;6118782;23;20526;-75
2022/03/09 09:57:35;;;;;;;10.80;9.80;;;15.80;42.80;;;;;;6114438;23;20451;-75
2022/03/09 10:00:04;;;;;;;11.13;10.13;;;15.80;42.20;;;;;;6102615;23;20503;-75
2022/03/09 10:02:31;;;;;;;11.97;10.80;;;16.30;42.20;;;;;;6117756;23;20472;-75
2022/03/09 10:04:58;;;;;;;11.83;10.70;;;17.10;41.40;;;;;;6114956;23;20521;-75
2022/03/09 10:07:26;;;;;;;11.67;10.47;;;17.60;40.60;;;;;;6112334;23;20452;-75
2022/03/09 10:09:54;;;;;;;12.40;11.20;;;18.00;39.70;;;;;;6114140;23;20516;-76
2022/03/09 10:12:28;;;;;;;12.20;11.20;;;18.30;39.60;;;;;;6113617;23;20457;-76
2022/03/09 10:14:56;;;;;;;12.63;11.37;;;19.10;40.00;;;;;;6112825;23;20490;-76
2022/03/09 10:17:26;;;;;;;12.23;11.00;;;20.10;38.20;;;;;;6118150;23;20476;-76
2022/03/09 10:19:54;;;;;;;11.63;10.53;;;20.40;37.40;;;;;;6103719;23;20445;-76
2022/03/09 10:22:33;;;;;;;12.37;11.27;;;20.40;37.30;;;;;;6098480;23;20489;-76
2022/03/09 10:25:02;;;;;;;12.10;11.10;;;20.10;37.20;;;;;;6110534;23;20484;-76
2022/03/09 10:27:35;;;;;;;12.20;11.10;;;19.90;37.00;;;;;;6102886;23;20434;-76
2022/03/09 10:30:04;;;;;;;12.27;11.17;;;19.80;37.30;;;;;;6105952;23;20441;-76
2022/03/09 10:32:48;;;;;;;11.97;10.87;;;19.60;37.80;;;;;;6113488;23;20532;-76
2022/03/09 10:35:17;;;;;;;13.17;11.87;;;19.50;37.50;;;;;;6098931;23;20511;-76
2022/03/09 10:37:48;;;;;;;11.80;10.60;;;19.40;37.50;;;;;;6105206;23;20441;-77
2022/03/09 10:40:17;;;;;;;12.00;10.90;;;19.10;37.50;;;;;;6103949;23;20430;-76
2022/03/09 10:42:44;;;;;;;12.57;11.43;;;18.90;37.50;;;;;;6100354;23;20457;-76
2022/03/09 10:45:12;;;;;;;12.83;11.53;;;18.60;37.50;;;;;;6104111;23;20434;-76
2022/03/09 10:47:40;;;;;;;13.60;12.30;;;18.80;37.50;;;;;;6107568;23;20932;-76
2022/03/09 10:50:09;;;;;;;12.93;11.73;;;18.60;37.00;;;;;;6112654;23;20433;-77
2022/03/09 10:52:44;;;;;;;13.73;11.47;;;18.50;37.70;;;;;;6111162;23;20972;-76
2022/03/09 10:55:23;;;;;;;12.27;11.17;;;18.80;37.20;;;;;;6101969;23;20438;-76
2022/03/09 10:57:50;;;;;;;12.50;11.30;;;18.60;37.20;;;;;;6107592;23;20454;-77
2022/03/09 11:00:35;;;;;;;13.03;11.90;;;18.50;37.70;;;;;;6116300;23;20445;-76
2022/03/09 11:03:06;;;;;;;12.13;10.93;;;18.80;37.40;;;;;;6116004;23;20968;-76
2022/03/09 11:05:33;;;;;;;13.30;12.00;;;18.80;37.00;;;;;;6105792;23;20445;-76
2022/03/09 11:08:01;;;;;;;13.80;12.53;;;18.80;36.80;;;;;;6109086;23;20430;-77
2022/03/09 11:10:30;;;;;;;15.07;13.67;;;18.60;36.90;;;;;;6100887;23;20434;-77
2022/03/09 11:12:57;;;;;;;13.97;12.67;;;18.60;36.80;;;;;;6105560;23;20583;-77
2022/03/09 11:15:26;;;;;;;13.10;11.80;;;19.20;37.50;;;;;;6111855;23;20443;-77
2022/03/09 11:17:54;;;;;;;12.43;11.43;;;19.30;36.80;;;;;;6091497;23;20475;-77
2022/03/09 11:20:21;;;;;;;13.93;12.73;;;19.70;36.20;;;;;;6106942;23;20955;-76
2022/03/09 11:22:50;;;;;;;13.50;12.30;;;19.50;35.60;;;;;;6116827;23;20486;-77
2022/03/09 11:25:21;;;;;;;14.33;12.40;;;19.50;35.60;;;;;;6113337;23;20446;-77
2022/03/09 11:27:51;;;;;;;13.10;12.00;;;19.70;34.90;;;;;;6097792;23;20808;-77
2022/03/09 11:30:22;;;;;;;12.73;11.63;;;20.00;35.90;;;;;;6103954;23;20461;-77
2022/03/09 11:32:50;;;;;;;12.47;11.37;;;20.30;35.40;;;;;;6109134;23;20470;-77
2022/03/09 11:35:38;;;;;;;12.53;11.43;;;20.40;36.00;;;;;;6114869;23;20457;-77
2022/03/09 11:38:39;;;;;;;13.47;12.20;;;20.90;34.80;;;;;;6112790;23;20829;-77
2022/03/09 11:41:20;;;;;;;14.57;13.17;;;20.60;33.40;;;;;;6117048;23;20437;-77
2022/03/09 11:43:50;;;;;;;13.40;12.10;;;20.20;33.50;;;;;;6108651;23;20434;-77
2022/03/09 11:46:17;;;;;;;13.07;11.87;;;20.10;34.40;;;;;;6110520;23;20445;-77
2022/03/09 11:48:55;;;;;;;13.13;11.93;;;20.30;33.90;;;;;;6115078;23;20792;-77
2022/03/09 11:51:24;;;;;;;11.57;10.50;;;20.30;33.30;;;;;;6104522;23;20533;-78
2022/03/09 11:53:53;;;;;;;12.73;11.63;;;20.70;33.20;;;;;;6111033;23;20464;-78
2022/03/09 11:56:24;;;;;;;13.33;12.17;;;21.40;32.40;;;;;;6097579;23;20980;-78
2022/03/09 11:59:19;;;;;;;13.70;12.40;;;21.80;33.10;;;;;;6111291;23;20445;-77
2022/03/09 12:02:26;;;;;;;13.10;12.03;;;21.80;32.50;;;;;;6108722;23;20492;-77
2022/03/09 12:04:59;;;;;;;11.17;10.20;;;21.50;31.30;;;;;;6097831;23;20499;-76
2022/03/09 12:07:49;;;;;;;12.77;11.67;;;21.60;32.20;;;;;;6105881;23;20437;-77
2022/03/09 12:10:17;;;;;;;12.80;11.70;;;22.30;32.10;;;;;;6117834;23;20448;-77
2022/03/09 12:13:10;;;;;;;12.50;11.40;;;22.70;31.30;;;;;;6109762;23;20911;-77
2022/03/09 12:16:07;;;;;;;13.03;11.73;;;22.20;30.10;;;;;;6097958;23;20938;-77
2022/03/09 12:18:37;;;;;;;13.17;11.87;;;21.50;31.80;;;;;;6109783;23;21293;-77
2022/03/09 12:21:05;;;;;;;11.93;10.90;;;22.10;31.70;;;;;;6107861;23;20465;-77
2022/03/09 12:23:32;;;;;;;12.30;11.30;;;22.30;31.50;;;;;;6108341;23;20444;-77
2022/03/09 12:26:01;;;;;;;12.83;11.73;;;22.70;31.50;;;;;;6115897;23;20447;-77
2022/03/09 12:28:47;;;;;;;13.47;12.17;;;23.10;31.10;;;;;;6115390;23;21065;-77
2022/03/09 12:31:23;;;;;;;12.07;11.07;;;22.80;31.40;;;;;;6110302;23;20477;-77
2022/03/09 12:33:54;;;;;;;13.30;12.20;;;22.70;30.50;;;;;;6108644;23;20487;-78
2022/03/09 12:36:23;;;;;;;12.70;11.70;;;21.80;31.50;;;;;;6108155;23;20467;-77
2022/03/09 12:38:52;;;;;;;12.40;11.40;;;21.90;31.20;;;;;;6106850;23;20505;-77
2022/03/09 12:41:30;;;;;;;12.80;11.60;;;21.70;31.10;;;;;;6102939;23;20960;-77
2022/03/09 12:44:01;;;;;;;13.10;11.87;;;21.20;30.90;;;;;;6107711;23;20441;-78
2022/03/09 12:46:28;;;;;;;13.23;12.00;;;21.10;31.60;;;;;;6103886;23;20932;-78
2022/03/09 12:49:04;;;;;;;12.03;10.90;;;21.00;31.00;;;;;;6110324;23;20484;-77
2022/03/09 12:51:32;;;;;;;11.30;10.33;;;21.10;30.30;;;;;;6102415;23;20494;-77